YQR weather

Regina International Airport
Regina, Saskatchewan, Canada

Public forecast

Using degrees Celsius for public forecast. Weather courtesy of forecast.io.

METAR (pilot weather report)

Retrieved 2019/03/24 15:00 UTC (29 minutes ago):

CYQR 241500Z 09010G17KT 15SM FEW025 BKN260 M05/M11 A3036 RMK SC1CI7 SC TR SLP315

TAF (pilot weather forecast)

Retrieved 2019/03/24 12:29 UTC (3 hours ago):

TAF CYQR 241138Z 2412/2512 08015G25KT P6SM SCT020 TEMPO 2412/2414 BKN020 FM241400 09015G25KT P6SM BKN015 TEMPO 2414/2418 3SM -SN BR BKN008 OVC015 FM241800 09012KT P6SM BKN015 TEMPO 2418/2421 SCT015 FM242100 11010KT P6SM SCT020 FM250600 11010KT P6SM OVC020 RMK NXT FCST BY 241800Z